sensor_id;sensor_type;location;lat;lon;timestamp;pressure;altitude;pressure_sealevel;temperature;humidity
66689;BME280;53587;59.318;18.084;2023-05-25T00:01:01;101461.84;;;19.75;85.98
66689;BME280;53587;59.318;18.084;2023-05-25T00:03:27;101470.31;;;19.44;85.18
66689;BME280;53587;59.318;18.084;2023-05-25T00:05:52;101468.72;;;19.28;86.23
66689;BME280;53587;59.318;18.084;2023-05-25T00:08:18;101468.75;;;19.88;91.30
66689;BME280;53587;59.318;18.084;2023-05-25T00:10:43;101464.41;;;20.17;91.82
66689;BME280;53587;59.318;18.084;2023-05-25T00:13:08;101455.31;;;20.46;92.86
66689;BME280;53587;59.318;18.084;2023-05-25T00:15:34;101456.63;;;20.24;88.31
66689;BME280;53587;59.318;18.084;2023-05-25T00:17:59;101451.59;;;19.81;86.61
66689;BME280;53587;59.318;18.084;2023-05-25T00:20:24;101453.06;;;19.63;85.61
66689;BME280;53587;59.318;18.084;2023-05-25T00:22:50;101452.63;;;19.45;85.97
66689;BME280;53587;59.318;18.084;2023-05-25T00:25:16;101455.25;;;19.71;91.21
66689;BME280;53587;59.318;18.084;2023-05-25T00:27:41;101447.91;;;20.06;92.48
66689;BME280;53587;59.318;18.084;2023-05-25T00:30:06;101457.59;;;20.38;92.38
66689;BME280;53587;59.318;18.084;2023-05-25T00:32:32;101457.47;;;20.54;91.33
66689;BME280;53587;59.318;18.084;2023-05-25T00:34:57;101461.72;;;20.06;87.29
66689;BME280;53587;59.318;18.084;2023-05-25T00:37:22;101464.09;;;19.73;86.04
66689;BME280;53587;59.318;18.084;2023-05-25T00:39:47;101458.19;;;19.40;85.19
66689;BME280;53587;59.318;18.084;2023-05-25T00:42:13;101457.38;;;19.29;87.20
66689;BME280;53587;59.318;18.084;2023-05-25T00:44:38;101458.56;;;19.73;91.59
66689;BME280;53587;59.318;18.084;2023-05-25T00:47:03;101456.19;;;20.06;92.40
66689;BME280;53587;59.318;18.084;2023-05-25T00:49:35;101450.97;;;20.34;92.65
66689;BME280;53587;59.318;18.084;2023-05-25T00:52:00;101454.19;;;20.47;90.86
66689;BME280;53587;59.318;18.084;2023-05-25T00:54:26;101453.88;;;20.19;88.08
66689;BME280;53587;59.318;18.084;2023-05-25T00:56:52;101450.78;;;19.75;85.79
66689;BME280;53587;59.318;18.084;2023-05-25T00:59:27;101448.75;;;19.46;85.63
66689;BME280;53587;59.318;18.084;2023-05-25T01:01:55;101460.47;;;19.23;85.47
66689;BME280;53587;59.318;18.084;2023-05-25T01:04:21;101446.47;;;19.59;90.77
66689;BME280;53587;59.318;18.084;2023-05-25T01:06:47;101452.97;;;19.94;92.90
66689;BME280;53587;59.318;18.084;2023-05-25T01:09:15;101456.09;;;20.17;91.89
66689;BME280;53587;59.318;18.084;2023-05-25T01:14:44;101447.50;;;20.53;92.08
66689;BME280;53587;59.318;18.084;2023-05-25T01:17:12;101452.84;;;20.09;88.89
66689;BME280;53587;59.318;18.084;2023-05-25T01:19:39;101444.22;;;19.66;86.33
66689;BME280;53587;59.318;18.084;2023-05-25T01:22:12;101450.16;;;19.44;86.46
66689;BME280;53587;59.318;18.084;2023-05-25T01:24:43;101453.25;;;19.27;86.99
66689;BME280;53587;59.318;18.084;2023-05-25T01:29:37;101440.16;;;20.03;93.08
66689;BME280;53587;59.318;18.084;2023-05-25T01:32:04;101447.19;;;20.25;91.56
66689;BME280;53587;59.318;18.084;2023-05-25T01:34:30;101448.75;;;20.36;90.98
66689;BME280;53587;59.318;18.084;2023-05-25T01:36:55;101449.97;;;20.54;91.64
66689;BME280;53587;59.318;18.084;2023-05-25T01:39:21;101435.38;;;20.14;86.46
66689;BME280;53587;59.318;18.084;2023-05-25T01:41:46;101442.59;;;19.60;85.52
66689;BME280;53587;59.318;18.084;2023-05-25T01:44:12;101438.31;;;19.33;86.13
66689;BME280;53587;59.318;18.084;2023-05-25T01:46:37;101441.97;;;19.13;85.75
66689;BME280;53587;59.318;18.084;2023-05-25T01:51:35;101448.53;;;19.83;92.14
66689;BME280;53587;59.318;18.084;2023-05-25T01:54:06;101442.88;;;20.08;92.61
66689;BME280;53587;59.318;18.084;2023-05-25T01:56:31;101447.19;;;20.25;91.19
66689;BME280;53587;59.318;18.084;2023-05-25T01:58:57;101455.13;;;20.37;91.01
66689;BME280;53587;59.318;18.084;2023-05-25T02:01:25;101441.97;;;20.53;91.70
66689;BME280;53587;59.318;18.084;2023-05-25T02:03:51;101456.72;;;20.08;85.27
66689;BME280;53587;59.318;18.084;2023-05-25T02:06:17;101451.41;;;19.67;86.26
66689;BME280;53587;59.318;18.084;2023-05-25T02:08:43;101447.16;;;19.30;85.56
66689;BME280;53587;59.318;18.084;2023-05-25T02:11:11;101460.22;;;19.09;85.34
66689;BME280;53587;59.318;18.084;2023-05-25T02:13:36;101458.13;;;19.51;90.81
66689;BME280;53587;59.318;18.084;2023-05-25T02:16:02;101455.78;;;19.84;93.05
66689;BME280;53587;59.318;18.084;2023-05-25T02:18:27;101460.03;;;20.10;92.38
66689;BME280;53587;59.318;18.084;2023-05-25T02:20:53;101464.38;;;20.22;91.25
66689;BME280;53587;59.318;18.084;2023-05-25T02:23:18;101447.09;;;20.35;90.20
66689;BME280;53587;59.318;18.084;2023-05-25T02:25:43;101441.47;;;20.46;90.96
66689;BME280;53587;59.318;18.084;2023-05-25T02:28:08;101443.56;;;20.59;92.58
66689;BME280;53587;59.318;18.084;2023-05-25T02:30:34;101434.28;;;20.44;89.46
66689;BME280;53587;59.318;18.084;2023-05-25T02:32:59;101438.63;;;19.87;86.79
66689;BME280;53587;59.318;18.084;2023-05-25T02:35:26;101442.06;;;19.58;86.77
66689;BME280;53587;59.318;18.084;2023-05-25T02:37:51;101439.94;;;19.39;86.25
66689;BME280;53587;59.318;18.084;2023-05-25T02:40:16;101445.97;;;19.52;90.60
66689;BME280;53587;59.318;18.084;2023-05-25T02:42:42;101448.25;;;19.94;92.37
66689;BME280;53587;59.318;18.084;2023-05-25T02:45:08;101452.22;;;20.18;92.46
66689;BME280;53587;59.318;18.084;2023-05-25T02:47:34;101443.72;;;20.43;93.52
66689;BME280;53587;59.318;18.084;2023-05-25T02:50:00;101454.19;;;20.47;90.45
66689;BME280;53587;59.318;18.084;2023-05-25T02:52:25;101457.09;;;19.91;86.35
66689;BME280;53587;59.318;18.084;2023-05-25T02:54:50;101473.34;;;19.53;86.26
66689;BME280;53587;59.318;18.084;2023-05-25T02:57:16;101464.50;;;19.41;86.40
66689;BME280;53587;59.318;18.084;2023-05-25T02:59:41;101461.00;;;19.30;87.14
66689;BME280;53587;59.318;18.084;2023-05-25T03:02:06;101464.63;;;19.75;91.54
66689;BME280;53587;59.318;18.084;2023-05-25T03:04:32;101476.66;;;20.05;93.11
66689;BME280;53587;59.318;18.084;2023-05-25T03:06:58;101480.16;;;20.21;92.06
66689;BME280;53587;59.318;18.084;2023-05-25T03:09:23;101474.25;;;20.33;90.59
66689;BME280;53587;59.318;18.084;2023-05-25T03:11:48;101469.69;;;20.48;91.44
66689;BME280;53587;59.318;18.084;2023-05-25T03:14:14;101464.91;;;20.58;90.25
66689;BME280;53587;59.318;18.084;2023-05-25T03:16:39;101476.72;;;19.95;84.36
66689;BME280;53587;59.318;18.084;2023-05-25T03:19:04;101481.31;;;19.60;85.72
66689;BME280;53587;59.318;18.084;2023-05-25T03:21:30;101474.78;;;19.35;85.86
66689;BME280;53587;59.318;18.084;2023-05-25T03:23:55;101476.19;;;19.22;85.24
66689;BME280;53587;59.318;18.084;2023-05-25T03:26:21;101477.19;;;19.57;90.78
66689;BME280;53587;59.318;18.084;2023-05-25T03:28:46;101473.47;;;19.88;92.61
66689;BME280;53587;59.318;18.084;2023-05-25T03:31:12;101472.50;;;20.08;91.95
66689;BME280;53587;59.318;18.084;2023-05-25T03:33:38;101473.78;;;20.21;91.17
66689;BME280;53587;59.318;18.084;2023-05-25T03:36:09;101477.59;;;20.30;89.60
66689;BME280;53587;59.318;18.084;2023-05-25T03:38:38;101476.69;;;20.40;90.17
66689;BME280;53587;59.318;18.084;2023-05-25T03:41:03;101464.09;;;20.53;91.67
66689;BME280;53587;59.318;18.084;2023-05-25T03:43:28;101467.47;;;20.50;87.78
66689;BME280;53587;59.318;18.084;2023-05-25T03:45:54;101462.44;;;19.72;85.27
66689;BME280;53587;59.318;18.084;2023-05-25T03:48:19;101453.19;;;19.42;85.91
66689;BME280;53587;59.318;18.084;2023-05-25T03:50:44;101462.13;;;19.19;85.20
66689;BME280;53587;59.318;18.084;2023-05-25T03:53:09;101462.13;;;19.19;89.48
66689;BME280;53587;59.318;18.084;2023-05-25T03:55:35;101470.50;;;19.63;91.57
66689;BME280;53587;59.318;18.084;2023-05-25T03:58:00;101433.34;;;19.90;92.62
66689;BME280;53587;59.318;18.084;2023-05-25T04:00:25;101453.94;;;20.08;91.64
66689;BME280;53587;59.318;18.084;2023-05-25T04:02:51;101462.19;;;20.19;90.50
66689;BME280;53587;59.318;18.084;2023-05-25T04:05:16;101458.75;;;20.32;91.01
66689;BME280;53587;59.318;18.084;2023-05-25T04:07:41;101454.19;;;20.47;90.36
66689;BME280;53587;59.318;18.084;2023-05-25T04:10:07;101459.06;;;20.60;89.99
66689;BME280;53587;59.318;18.084;2023-05-25T04:12:32;101446.88;;;20.61;88.17
66689;BME280;53587;59.318;18.084;2023-05-25T04:14:58;101449.38;;;19.88;84.99
66689;BME280;53587;59.318;18.084;2023-05-25T04:17:23;101464.19;;;19.53;85.10
66689;BME280;53587;59.318;18.084;2023-05-25T04:19:49;101464.84;;;19.29;85.89
66689;BME280;53587;59.318;18.084;2023-05-25T04:22:15;101475.94;;;19.24;88.50
66689;BME280;53587;59.318;18.084;2023-05-25T04:24:40;101471.88;;;19.66;91.40
66689;BME280;53587;59.318;18.084;2023-05-25T04:27:05;101480.34;;;19.90;90.62
66689;BME280;53587;59.318;18.084;2023-05-25T04:29:31;101487.16;;;20.08;92.12
66689;BME280;53587;59.318;18.084;2023-05-25T04:31:56;101488.16;;;20.23;90.35
66689;BME280;53587;59.318;18.084;2023-05-25T04:34:22;101495.81;;;20.36;90.65
66689;BME280;53587;59.318;18.084;2023-05-25T04:36:47;101489.88;;;20.53;90.45
66689;BME280;53587;59.318;18.084;2023-05-25T04:39:12;101492.78;;;20.33;85.09
66689;BME280;53587;59.318;18.084;2023-05-25T04:41:37;101498.38;;;19.72;85.14
66689;BME280;53587;59.318;18.084;2023-05-25T04:44:03;101496.88;;;19.40;84.99
66689;BME280;53587;59.318;18.084;2023-05-25T04:46:28;101499.16;;;19.18;85.09
66689;BME280;53587;59.318;18.084;2023-05-25T04:48:55;101501.59;;;19.29;88.99
66689;BME280;53587;59.318;18.084;2023-05-25T04:51:20;101514.47;;;19.60;91.90
66689;BME280;53587;59.318;18.084;2023-05-25T04:53:46;101512.44;;;19.86;92.37
66689;BME280;53587;59.318;18.084;2023-05-25T04:56:12;101509.03;;;20.05;91.29
66689;BME280;53587;59.318;18.084;2023-05-25T04:58:37;101506.47;;;20.19;92.31
66689;BME280;53587;59.318;18.084;2023-05-25T05:01:03;101508.00;;;20.35;91.18
66689;BME280;53587;59.318;18.084;2023-05-25T05:03:28;101506.25;;;20.44;89.61
66689;BME280;53587;59.318;18.084;2023-05-25T05:05:53;101507.25;;;20.59;90.39
66689;BME280;53587;59.318;18.084;2023-05-25T05:08:18;101505.94;;;20.11;84.87
66689;BME280;53587;59.318;18.084;2023-05-25T05:10:44;101512.28;;;19.57;85.06
66689;BME280;53587;59.318;18.084;2023-05-25T05:13:09;101510.13;;;19.43;87.07
66689;BME280;53587;59.318;18.084;2023-05-25T05:15:35;101515.91;;;19.47;86.50
66689;BME280;53587;59.318;18.084;2023-05-25T05:18:00;101514.88;;;19.98;91.58
66689;BME280;53587;59.318;18.084;2023-05-25T05:20:25;101516.19;;;20.51;92.36
66689;BME280;53587;59.318;18.084;2023-05-25T05:22:51;101518.97;;;20.46;89.16
66689;BME280;53587;59.318;18.084;2023-05-25T05:25:17;101522.63;;;20.41;86.28
66689;BME280;53587;59.318;18.084;2023-05-25T05:27:42;101529.56;;;20.38;86.94
66689;BME280;53587;59.318;18.084;2023-05-25T05:30:07;101521.75;;;20.46;87.14
66689;BME280;53587;59.318;18.084;2023-05-25T05:32:33;101526.63;;;20.59;87.57
66689;BME280;53587;59.318;18.084;2023-05-25T05:34:59;101530.44;;;20.73;88.24
66689;BME280;53587;59.318;18.084;2023-05-25T05:37:24;101534.47;;;20.86;87.59
66689;BME280;53587;59.318;18.084;2023-05-25T05:39:49;101526.31;;;21.00;88.02
66689;BME280;53587;59.318;18.084;2023-05-25T05:42:16;101523.44;;;21.11;87.71
66689;BME280;53587;59.318;18.084;2023-05-25T05:44:41;101531.44;;;21.12;87.88
66689;BME280;53587;59.318;18.084;2023-05-25T05:47:07;101540.53;;;21.18;89.22
66689;BME280;53587;59.318;18.084;2023-05-25T05:49:32;101532.03;;;21.33;86.95
66689;BME280;53587;59.318;18.084;2023-05-25T05:51:58;101540.84;;;21.40;88.19
66689;BME280;53587;59.318;18.084;2023-05-25T05:54:23;101538.47;;;21.53;87.76
66689;BME280;53587;59.318;18.084;2023-05-25T05:56:49;101539.91;;;21.50;87.30
66689;BME280;53587;59.318;18.084;2023-05-25T05:59:14;101540.69;;;21.56;87.73
66689;BME280;53587;59.318;18.084;2023-05-25T06:01:39;101545.13;;;21.52;86.19
66689;BME280;53587;59.318;18.084;2023-05-25T06:04:06;101557.13;;;21.47;87.42
66689;BME280;53587;59.318;18.084;2023-05-25T06:06:32;101553.75;;;21.50;87.06
66689;BME280;53587;59.318;18.084;2023-05-25T06:09:02;101561.78;;;21.52;86.68
66689;BME280;53587;59.318;18.084;2023-05-25T06:11:30;101565.69;;;21.51;87.38
66689;BME280;53587;59.318;18.084;2023-05-25T06:13:55;101569.59;;;21.50;86.39
66689;BME280;53587;59.318;18.084;2023-05-25T06:16:20;101577.84;;;21.55;87.81
66689;BME280;53587;59.318;18.084;2023-05-25T06:18:45;101575.88;;;21.61;86.58
66689;BME280;53587;59.318;18.084;2023-05-25T06:21:11;101586.97;;;21.61;87.20
66689;BME280;53587;59.318;18.084;2023-05-25T06:23:36;101586.72;;;21.57;86.60
66689;BME280;53587;59.318;18.084;2023-05-25T06:26:02;101586.72;;;21.57;86.75
66689;BME280;53587;59.318;18.084;2023-05-25T06:28:27;101592.28;;;21.57;87.20
66689;BME280;53587;59.318;18.084;2023-05-25T06:30:52;101591.09;;;21.63;86.35
66689;BME280;53587;59.318;18.084;2023-05-25T06:33:17;101615.16;;;21.68;86.19
66689;BME280;53587;59.318;18.084;2023-05-25T06:35:43;101624.94;;;21.60;87.06
66689;BME280;53587;59.318;18.084;2023-05-25T06:38:08;101615.50;;;21.61;86.59
66689;BME280;53587;59.318;18.084;2023-05-25T06:40:33;101621.06;;;21.61;86.52
66689;BME280;53587;59.318;18.084;2023-05-25T06:43:01;101643.34;;;21.51;85.18
66689;BME280;53587;59.318;18.084;2023-05-25T06:45:26;101638.03;;;21.54;86.71
66689;BME280;53587;59.318;18.084;2023-05-25T06:47:52;101641.38;;;21.51;86.74
66689;BME280;53587;59.318;18.084;2023-05-25T06:50:17;101647.47;;;21.53;86.35
66689;BME280;53587;59.318;18.084;2023-05-25T06:52:42;101650.25;;;21.53;87.13
66689;BME280;53587;59.318;18.084;2023-05-25T06:55:08;101650.50;;;21.57;86.09
66689;BME280;53587;59.318;18.084;2023-05-25T06:57:33;101651.91;;;21.54;86.36
66689;BME280;53587;59.318;18.084;2023-05-25T06:59:58;101655.47;;;21.55;86.57
66689;BME280;53587;59.318;18.084;2023-05-25T07:02:23;101659.34;;;21.59;86.46
66689;BME280;53587;59.318;18.084;2023-05-25T07:04:49;101664.88;;;21.59;87.24
66689;BME280;53587;59.318;18.084;2023-05-25T07:07:15;101664.38;;;21.57;85.64
66689;BME280;53587;59.318;18.084;2023-05-25T07:09:40;101661.59;;;21.52;86.55
66689;BME280;53587;59.318;18.084;2023-05-25T07:12:06;101679.91;;;21.53;86.16
66689;BME280;53587;59.318;18.084;2023-05-25T07:14:36;101673.22;;;21.54;86.09
66689;BME280;53587;59.318;18.084;2023-05-25T07:17:01;101680.41;;;21.60;86.87
66689;BME280;53587;59.318;18.084;2023-05-25T07:19:26;101677.66;;;21.55;86.05
66689;BME280;53587;59.318;18.084;2023-05-25T07:21:52;101688.50;;;21.51;86.61
66689;BME280;53587;59.318;18.084;2023-05-25T07:24:17;101694.31;;;21.55;86.01
66689;BME280;53587;59.318;18.084;2023-05-25T07:26:43;101703.78;;;21.49;85.83
66689;BME280;53587;59.318;18.084;2023-05-25T07:29:09;101706.22;;;21.55;86.25
66689;BME280;53587;59.318;18.084;2023-05-25T07:31:34;101703.22;;;21.57;85.94
66689;BME280;53587;59.318;18.084;2023-05-25T07:34:00;101697.09;;;21.55;86.99
66689;BME280;53587;59.318;18.084;2023-05-25T07:36:25;101702.63;;;21.55;86.64
66689;BME280;53587;59.318;18.084;2023-05-25T07:38:51;101698.34;;;21.97;90.75
66689;BME280;53587;59.318;18.084;2023-05-25T07:41:16;101703.47;;;22.09;88.45
66689;BME280;53587;59.318;18.084;2023-05-25T07:43:41;101707.69;;;21.48;81.07
66689;BME280;53587;59.318;18.084;2023-05-25T07:46:07;101713.03;;;21.04;79.80
66689;BME280;53587;59.318;18.084;2023-05-25T07:48:32;101706.38;;;21.05;82.84
66689;BME280;53587;59.318;18.084;2023-05-25T07:50:57;101712.41;;;21.13;85.04
66689;BME280;53587;59.318;18.084;2023-05-25T07:53:23;101714.28;;;21.22;86.78
66689;BME280;53587;59.318;18.084;2023-05-25T07:55:48;101716.09;;;21.37;87.42
66689;BME280;53587;59.318;18.084;2023-05-25T07:58:13;101719.22;;;21.26;86.38
66689;BME280;53587;59.318;18.084;2023-05-25T08:00:38;101730.03;;;21.27;85.04
66689;BME280;53587;59.318;18.084;2023-05-25T08:03:03;101743.31;;;21.30;85.30
66689;BME280;53587;59.318;18.084;2023-05-25T08:05:29;101737.97;;;21.39;87.03
66689;BME280;53587;59.318;18.084;2023-05-25T08:07:54;101746.66;;;21.27;85.96
66689;BME280;53587;59.318;18.084;2023-05-25T08:10:20;101757.13;;;21.35;86.18
66689;BME280;53587;59.318;18.084;2023-05-25T08:12:45;101766.56;;;21.34;85.69
66689;BME280;53587;59.318;18.084;2023-05-25T08:15:10;101763.75;;;21.39;87.14
66689;BME280;53587;59.318;18.084;2023-05-25T08:17:37;101767.06;;;21.42;87.07
66689;BME280;53587;59.318;18.084;2023-05-25T08:20:02;101769.13;;;21.26;85.92
66689;BME280;53587;59.318;18.084;2023-05-25T08:22:30;101775.44;;;21.36;87.12
66689;BME280;53587;59.318;18.084;2023-05-25T08:24:56;101783.25;;;21.29;84.67
66689;BME280;53587;59.318;18.084;2023-05-25T08:27:21;101802.97;;;21.22;86.38
66689;BME280;53587;59.318;18.084;2023-05-25T08:29:46;101795.16;;;21.30;85.89
66689;BME280;53587;59.318;18.084;2023-05-25T08:32:11;101795.16;;;21.30;86.26
66689;BME280;53587;59.318;18.084;2023-05-25T08:34:37;101793.22;;;21.30;86.10
66689;BME280;53587;59.318;18.084;2023-05-25T08:37:02;101798.75;;;21.30;84.96
66689;BME280;53587;59.318;18.084;2023-05-25T08:39:27;101809.88;;;21.25;85.92
66689;BME280;53587;59.318;18.084;2023-05-25T08:41:52;101794.03;;;21.31;85.81
66689;BME280;53587;59.318;18.084;2023-05-25T08:44:18;101802.41;;;21.26;85.93
66689;BME280;53587;59.318;18.084;2023-05-25T08:46:44;101801.19;;;21.37;86.41
66689;BME280;53587;59.318;18.084;2023-05-25T08:49:12;101797.34;;;21.33;85.29
66689;BME280;53587;59.318;18.084;2023-05-25T08:51:40;101793.19;;;21.35;85.50
66689;BME280;53587;59.318;18.084;2023-05-25T08:54:07;101785.44;;;21.32;85.00
66689;BME280;53587;59.318;18.084;2023-05-25T08:56:33;101794.63;;;21.28;85.95
66689;BME280;53587;59.318;18.084;2023-05-25T08:59:07;101809.25;;;21.33;86.16
66689;BME280;53587;59.318;18.084;2023-05-25T09:01:35;101813.47;;;21.26;84.89
66689;BME280;53587;59.318;18.084;2023-05-25T09:04:02;101804.31;;;21.30;86.03
66689;BME280;53587;59.318;18.084;2023-05-25T09:06:27;101805.38;;;21.34;84.94
66689;BME280;53587;59.318;18.084;2023-05-25T09:08:53;101811.81;;;21.24;85.75
66689;BME280;53587;59.318;18.084;2023-05-25T09:11:19;101813.47;;;21.26;85.28
66689;BME280;53587;59.318;18.084;2023-05-25T09:13:45;101818.22;;;21.25;85.37
66689;BME280;53587;59.318;18.084;2023-05-25T09:16:10;101817.63;;;21.28;86.09
66689;BME280;53587;59.318;18.084;2023-05-25T09:18:36;101818.22;;;21.25;84.40
66689;BME280;53587;59.318;18.084;2023-05-25T09:21:01;101823.75;;;21.25;84.81
66689;BME280;53587;59.318;18.084;2023-05-25T09:23:26;101830.06;;;21.31;85.35
66689;BME280;53587;59.318;18.084;2023-05-25T09:25:52;101830.34;;;21.34;84.50
66689;BME280;53587;59.318;18.084;2023-05-25T09:28:18;101839.50;;;21.30;85.27
66689;BME280;53587;59.318;18.084;2023-05-25T09:30:44;101832.03;;;21.30;84.04
66689;BME280;53587;59.318;18.084;2023-05-25T09:35:35;101840.31;;;21.35;85.25
66689;BME280;53587;59.318;18.084;2023-05-25T09:38:01;101847.00;;;21.29;84.85
66689;BME280;53587;59.318;18.084;2023-05-25T09:40:26;101844.78;;;21.31;84.95
66689;BME280;53587;59.318;18.084;2023-05-25T09:42:51;101843.94;;;21.31;84.29
66689;BME280;53587;59.318;18.084;2023-05-25T09:45:16;101847.56;;;21.31;85.57
66689;BME280;53587;59.318;18.084;2023-05-25T09:47:42;101852.53;;;21.29;85.06
66689;BME280;53587;59.318;18.084;2023-05-25T09:50:08;101848.06;;;21.33;84.83
66689;BME280;53587;59.318;18.084;2023-05-25T09:52:33;101848.63;;;21.35;85.15
66689;BME280;53587;59.318;18.084;2023-05-25T09:54:59;101855.28;;;21.34;84.35
66689;BME280;53587;59.318;18.084;2023-05-25T09:57:25;101855.63;;;21.28;85.52
66689;BME280;53587;59.318;18.084;2023-05-25T09:59:51;101858.09;;;21.29;84.38
66689;BME280;53587;59.318;18.084;2023-05-25T10:02:16;101858.69;;;21.26;84.77
66689;BME280;53587;59.318;18.084;2023-05-25T10:04:41;101860.56;;;21.31;85.69
66689;BME280;53587;59.318;18.084;2023-05-25T10:07:07;101864.22;;;21.26;84.80
66689;BME280;53587;59.318;18.084;2023-05-25T10:09:34;101870.59;;;21.27;85.43
66689;BME280;53587;59.318;18.084;2023-05-25T10:12:02;101864.16;;;21.36;84.34
66689;BME280;53587;59.318;18.084;2023-05-25T10:14:28;101875.28;;;21.31;84.80
66689;BME280;53587;59.318;18.084;2023-05-25T10:16:54;101874.72;;;21.29;85.29
66689;BME280;53587;59.318;18.084;2023-05-25T10:21:53;101889.13;;;21.31;85.75
66689;BME280;53587;59.318;18.084;2023-05-25T10:24:23;101887.47;;;21.30;84.20
66689;BME280;53587;59.318;18.084;2023-05-25T10:26:53;101879.19;;;21.25;85.29
66689;BME280;53587;59.318;18.084;2023-05-25T10:29:18;101874.16;;;21.27;84.79
66689;BME280;53587;59.318;18.084;2023-05-25T10:31:44;101880.59;;;21.22;85.02
66689;BME280;53587;59.318;18.084;2023-05-25T10:34:09;101880.28;;;21.29;85.39
66689;BME280;53587;59.318;18.084;2023-05-25T10:36:35;101878.34;;;21.24;84.34
66689;BME280;53587;59.318;18.084;2023-05-25T10:39:02;101880.59;;;21.22;85.07
66689;BME280;53587;59.318;18.084;2023-05-25T10:41:27;101881.94;;;21.30;85.27
66689;BME280;53587;59.318;18.084;2023-05-25T10:43:52;101875.88;;;21.23;84.62
66689;BME280;53587;59.318;18.084;2023-05-25T10:46:19;101871.94;;;21.29;85.78
66689;BME280;53587;59.318;18.084;2023-05-25T10:48:46;101882.22;;;21.29;84.63
66689;BME280;53587;59.318;18.084;2023-05-25T10:51:17;101884.75;;;21.25;85.63
66689;BME280;53587;59.318;18.084;2023-05-25T10:53:43;101876.97;;;21.22;84.58
66689;BME280;53587;59.318;18.084;2023-05-25T10:56:12;101877.81;;;21.22;85.59
66689;BME280;53587;59.318;18.084;2023-05-25T10:58:41;101884.19;;;21.23;85.76
66689;BME280;53587;59.318;18.084;2023-05-25T11:01:12;101882.75;;;21.31;85.11
66689;BME280;53587;59.318;18.084;2023-05-25T11:06:17;101879.44;;;21.29;84.81
66689;BME280;53587;59.318;18.084;2023-05-25T11:08:55;101886.69;;;21.19;85.68
66689;BME280;53587;59.318;18.084;2023-05-25T11:11:21;101889.13;;;21.31;84.69
66689;BME280;53587;59.318;18.084;2023-05-25T11:13:47;101888.31;;;21.26;85.58
66689;BME280;53587;59.318;18.084;2023-05-25T11:18:57;101889.13;;;21.31;84.25
66689;BME280;53587;59.318;18.084;2023-05-25T11:23:51;101892.44;;;21.33;84.40
66689;BME280;53587;59.318;18.084;2023-05-25T11:26:18;101888.25;;;21.36;86.10
66689;BME280;53587;59.318;18.084;2023-05-25T11:28:45;101891.00;;;21.46;86.50
66689;BME280;53587;59.318;18.084;2023-05-25T11:31:11;101893.47;;;21.48;85.32
66689;BME280;53587;59.318;18.084;2023-05-25T11:33:37;101889.00;;;21.52;86.65
66689;BME280;53587;59.318;18.084;2023-05-25T11:36:02;101885.97;;;21.53;84.94
66689;BME280;53587;59.318;18.084;2023-05-25T11:38:29;101889.84;;;21.52;85.65
66689;BME280;53587;59.318;18.084;2023-05-25T11:40:55;101886.25;;;21.57;86.58
66689;BME280;53587;59.318;18.084;2023-05-25T11:43:20;101881.22;;;21.59;85.70
66689;BME280;53587;59.318;18.084;2023-05-25T11:45:53;101885.41;;;21.57;85.09
66689;BME280;53587;59.318;18.084;2023-05-25T11:48:19;101880.69;;;21.52;85.01
66689;BME280;53587;59.318;18.084;2023-05-25T11:50:45;101881.81;;;21.51;85.27
66689;BME280;53587;59.318;18.084;2023-05-25T11:53:10;101891.75;;;21.52;85.47
66689;BME280;53587;59.318;18.084;2023-05-25T11:55:35;101877.06;;;21.57;85.30
66689;BME280;53587;59.318;18.084;2023-05-25T11:58:04;101884.28;;;21.52;85.26
66689;BME280;53587;59.318;18.084;2023-05-25T12:00:30;101880.16;;;21.50;85.14
66689;BME280;53587;59.318;18.084;2023-05-25T12:02:56;101889.59;;;21.49;85.30
66689;BME280;53587;59.318;18.084;2023-05-25T12:05:21;101881.22;;;21.59;85.07
66689;BME280;53587;59.318;18.084;2023-05-25T12:07:47;101890.16;;;21.46;85.24
66689;BME280;53587;59.318;18.084;2023-05-25T12:10:15;101882.63;;;21.51;85.89
66689;BME280;53587;59.318;18.084;2023-05-25T12:15:07;101873.75;;;21.49;85.33
66689;BME280;53587;59.318;18.084;2023-05-25T12:17:33;101880.41;;;21.53;84.62
66689;BME280;53587;59.318;18.084;2023-05-25T12:19:58;101873.75;;;21.49;85.39
66689;BME280;53587;59.318;18.084;2023-05-25T12:22:24;101878.75;;;21.52;86.05
66689;BME280;53587;59.318;18.084;2023-05-25T12:24:49;101882.88;;;21.55;85.17
66689;BME280;53587;59.318;18.084;2023-05-25T12:27:18;101874.00;;;21.53;85.08
66689;BME280;53587;59.318;18.084;2023-05-25T12:29:47;101869.38;;;21.43;84.45
66689;BME280;53587;59.318;18.084;2023-05-25T12:32:12;101861.13;;;21.33;84.53
66689;BME280;53587;59.318;18.084;2023-05-25T12:34:38;101864.69;;;21.38;85.65
66689;BME280;53587;59.318;18.084;2023-05-25T12:37:03;101860.00;;;21.34;85.57
66689;BME280;53587;59.318;18.084;2023-05-25T12:41:54;101856.13;;;21.35;84.49
66689;BME280;53587;59.318;18.084;2023-05-25T12:46:46;101860.28;;;21.37;85.91
66689;BME280;53587;59.318;18.084;2023-05-25T12:51:52;101864.97;;;21.37;85.64
66689;BME280;53587;59.318;18.084;2023-05-25T12:56:58;101865.28;;;21.30;84.91
66689;BME280;53587;59.318;18.084;2023-05-25T12:59:23;101850.84;;;21.33;84.41
66689;BME280;53587;59.318;18.084;2023-05-25T13:01:48;101867.00;;;21.21;85.13
66689;BME280;53587;59.318;18.084;2023-05-25T13:04:13;101863.94;;;21.28;84.88
66689;BME280;53587;59.318;18.084;2023-05-25T13:06:39;101871.44;;;21.22;84.02